createdAt,value
2018-03-07T00:00:49.698Z,74.93
2018-03-07T00:03:15.631Z,75.33
2018-03-07T00:05:41.542Z,75.37
2018-03-07T00:08:07.463Z,74.79
2018-03-07T00:10:33.382Z,73.97
2018-03-07T00:12:59.308Z,74.30
2018-03-07T00:15:25.226Z,74.68
2018-03-07T00:17:51.152Z,73.67
2018-03-07T00:20:17.071Z,73.58
2018-03-07T00:22:42.987Z,73.31
2018-03-07T00:25:08.941Z,72.28
2018-03-07T00:27:34.859Z,72.00
2018-03-07T00:30:00.774Z,73.24
2018-03-07T00:32:26.703Z,72.73
2018-03-07T00:34:52.626Z,73.96
2018-03-07T00:37:18.544Z,73.22
2018-03-07T00:39:44.465Z,74.00
2018-03-07T00:42:10.405Z,74.56
2018-03-07T00:44:36.323Z,74.32
2018-03-07T00:47:02.251Z,74.37
2018-03-07T00:49:28.182Z,74.42
2018-03-07T00:51:54.102Z,73.30
2018-03-07T00:54:20.025Z,73.95
2018-03-07T00:56:45.938Z,73.59
2018-03-07T00:59:11.862Z,73.27
2018-03-07T01:01:37.786Z,73.09
2018-03-07T01:04:03.719Z,72.15
2018-03-07T01:06:29.636Z,71.89
2018-03-07T01:08:55.550Z,71.98
2018-03-07T01:11:21.466Z,72.95
2018-03-07T01:13:47.377Z,72.87
2018-03-07T01:16:13.288Z,73.11
2018-03-07T01:18:39.203Z,72.43
2018-03-07T01:21:05.123Z,72.38
2018-03-07T01:23:31.061Z,74.31
2018-03-07T01:25:56.987Z,74.44
2018-03-07T01:28:22.975Z,73.26
2018-03-07T01:30:48.891Z,72.67
2018-03-07T01:33:14.833Z,71.53
2018-03-07T01:35:40.751Z,73.48
2018-03-07T01:38:06.679Z,74.28
2018-03-07T01:40:32.595Z,73.71
2018-03-07T01:42:58.541Z,73.38
2018-03-07T01:45:24.474Z,73.09
2018-03-07T01:47:50.394Z,72.58
2018-03-07T01:50:16.315Z,73.24
2018-03-07T01:52:42.272Z,72.78
2018-03-07T01:55:08.207Z,73.03
2018-03-07T01:57:34.126Z,72.63
2018-03-07T02:00:00.047Z,72.28
2018-03-07T02:02:25.973Z,71.61
2018-03-07T02:04:51.893Z,70.75
2018-03-07T02:07:17.848Z,71.50
2018-03-07T02:09:43.771Z,71.99
2018-03-07T02:12:09.690Z,72.46
2018-03-07T02:14:35.616Z,72.10
2018-03-07T02:17:01.543Z,71.05
2018-03-07T02:19:27.463Z,72.11
2018-03-07T02:21:53.388Z,72.74
2018-03-07T02:24:19.304Z,73.26
2018-03-07T02:26:45.219Z,72.51
2018-03-07T02:29:11.150Z,72.46
2018-03-07T02:31:37.061Z,72.71
2018-03-07T02:34:02.987Z,71.93
2018-03-07T02:36:28.905Z,73.89
2018-03-07T02:38:54.843Z,73.73
2018-03-07T02:41:20.766Z,73.30
2018-03-07T02:43:46.709Z,72.35
2018-03-07T02:46:12.644Z,72.58
2018-03-07T02:48:38.588Z,72.47
2018-03-07T02:51:04.509Z,71.89
2018-03-07T02:53:30.431Z,72.67
2018-03-07T02:55:56.377Z,72.37
2018-03-07T02:58:22.308Z,72.93
2018-03-07T03:00:48.227Z,72.96
2018-03-07T03:03:14.155Z,71.75
2018-03-07T03:05:40.095Z,71.60
2018-03-07T03:08:06.031Z,71.68
2018-03-07T03:10:31.962Z,70.59
2018-03-07T03:12:57.903Z,71.39
2018-03-07T03:15:23.830Z,71.24
2018-03-07T03:17:49.771Z,70.49
2018-03-07T03:20:15.688Z,70.59
2018-03-07T03:22:41.615Z,70.64
2018-03-07T03:25:07.532Z,70.10
2018-03-07T03:27:33.467Z,70.54
2018-03-07T03:29:59.386Z,70.14
2018-03-07T03:32:25.340Z,69.98
2018-03-07T03:34:51.260Z,69.82
2018-03-07T03:37:17.215Z,69.71
2018-03-07T03:39:43.138Z,69.17
2018-03-07T03:42:09.079Z,69.35
2018-03-07T03:44:34.995Z,69.52
2018-03-07T03:47:00.930Z,68.52
2018-03-07T03:49:26.845Z,68.28
2018-03-07T03:51:52.792Z,67.94
2018-03-07T03:54:18.720Z,68.63
2018-03-07T03:56:44.646Z,68.78
2018-03-07T03:59:10.556Z,68.73
2018-03-07T04:01:36.487Z,68.57
2018-03-07T04:04:02.413Z,69.57
2018-03-07T04:06:28.340Z,69.74
2018-03-07T04:08:54.283Z,69.19
2018-03-07T04:11:20.231Z,68.89
2018-03-07T04:13:46.155Z,68.75
2018-03-07T04:16:12.102Z,68.13
2018-03-07T04:18:38.031Z,67.70
2018-03-07T04:21:03.967Z,67.75
2018-03-07T04:23:29.886Z,68.11
2018-03-07T04:25:55.834Z,69.06
2018-03-07T04:28:21.770Z,68.64
2018-03-07T04:30:47.781Z,67.30
2018-03-07T04:33:13.711Z,67.01
2018-03-07T04:35:39.649Z,67.95
2018-03-07T04:38:05.598Z,68.28
2018-03-07T04:40:31.527Z,68.18
2018-03-07T04:42:57.461Z,69.46
2018-03-07T04:45:23.383Z,69.21
2018-03-07T04:47:49.318Z,69.50
2018-03-07T04:50:15.251Z,69.61
2018-03-07T04:52:41.272Z,68.86
2018-03-07T04:55:07.206Z,68.10
2018-03-07T04:57:33.143Z,68.29
2018-03-07T04:59:59.063Z,67.46
2018-03-07T05:02:24.999Z,67.75
2018-03-07T05:04:50.925Z,68.47
2018-03-07T05:07:16.880Z,68.93
2018-03-07T05:09:42.809Z,69.28
2018-03-07T05:12:08.758Z,69.12
2018-03-07T05:14:34.691Z,70.68
2018-03-07T05:17:00.619Z,70.20
2018-03-07T05:19:26.542Z,70.79
2018-03-07T05:21:52.486Z,69.40
2018-03-07T05:24:18.418Z,69.22
2018-03-07T05:26:44.366Z,69.40
2018-03-07T05:29:10.299Z,68.95
2018-03-07T05:31:36.227Z,69.23
2018-03-07T05:34:02.161Z,69.32
2018-03-07T05:36:28.083Z,68.90
2018-03-07T05:38:54.011Z,68.01
2018-03-07T05:41:19.931Z,67.57
2018-03-07T05:43:45.854Z,67.33
2018-03-07T05:46:11.770Z,67.39
2018-03-07T05:48:37.709Z,67.90
2018-03-07T05:51:03.680Z,67.73
2018-03-07T05:53:29.631Z,67.42
2018-03-07T05:55:55.555Z,67.70
2018-03-07T05:58:21.481Z,67.35
2018-03-07T06:00:47.406Z,66.51
2018-03-07T06:03:13.333Z,66.19
2018-03-07T06:05:39.268Z,67.45
2018-03-07T06:08:05.202Z,67.75
2018-03-07T06:10:31.127Z,67.38
2018-03-07T06:12:57.057Z,67.26
2018-03-07T06:15:23.005Z,67.70
2018-03-07T06:17:48.923Z,67.40
2018-03-07T06:20:14.847Z,66.45
2018-03-07T06:22:40.765Z,67.51
2018-03-07T06:25:06.687Z,66.55
2018-03-07T06:27:32.605Z,66.79
2018-03-07T06:29:58.526Z,66.85
2018-03-07T06:32:24.448Z,67.69
2018-03-07T06:34:50.370Z,68.44
2018-03-07T06:37:16.297Z,68.46
2018-03-07T06:39:42.225Z,68.52
2018-03-07T06:42:08.159Z,67.67
2018-03-07T06:44:34.082Z,67.06
2018-03-07T06:47:00.037Z,66.85
2018-03-07T06:49:25.963Z,65.71
2018-03-07T06:51:51.885Z,66.82
2018-03-07T06:54:17.821Z,67.07
2018-03-07T06:56:43.754Z,65.96
2018-03-07T06:59:09.713Z,67.46
2018-03-07T07:01:35.634Z,68.89
2018-03-07T07:04:01.557Z,70.22
2018-03-07T07:06:27.478Z,70.01
2018-03-07T07:08:53.419Z,70.40
2018-03-07T07:11:19.337Z,68.39
2018-03-07T07:13:45.297Z,69.45
2018-03-07T07:16:11.227Z,69.38
2018-03-07T07:18:37.151Z,69.42
2018-03-07T07:21:03.145Z,68.56
2018-03-07T07:23:29.079Z,68.43
2018-03-07T07:25:55.006Z,69.52
2018-03-07T07:28:20.940Z,68.56
2018-03-07T07:30:46.857Z,70.03
2018-03-07T07:33:12.785Z,69.63
2018-03-07T07:35:38.698Z,69.80
2018-03-07T07:38:04.624Z,71.38
2018-03-07T07:40:30.555Z,69.59
2018-03-07T07:42:56.474Z,67.09
2018-03-07T07:45:22.393Z,67.73
2018-03-07T07:47:48.326Z,68.07
2018-03-07T07:50:14.256Z,68.29
2018-03-07T07:52:40.185Z,67.58
2018-03-07T07:55:06.117Z,67.55
2018-03-07T07:57:32.044Z,68.65
2018-03-07T07:59:57.965Z,70.23
2018-03-07T08:02:23.885Z,70.12
2018-03-07T08:04:49.808Z,67.88
2018-03-07T08:07:15.741Z,69.44
2018-03-07T08:09:41.659Z,69.22
2018-03-07T08:12:07.634Z,68.51
2018-03-07T08:14:33.546Z,70.49
2018-03-07T08:16:59.548Z,68.56
2018-03-07T08:19:25.471Z,70.87
2018-03-07T08:21:51.390Z,70.99
2018-03-07T08:24:17.336Z,70.26
2018-03-07T08:26:43.259Z,68.02
2018-03-07T08:29:09.174Z,68.42
2018-03-07T08:31:35.092Z,68.37
2018-03-07T08:34:01.014Z,68.18
2018-03-07T08:36:26.938Z,69.10
2018-03-07T08:38:52.883Z,68.11
2018-03-07T08:41:18.814Z,67.87
2018-03-07T08:43:44.740Z,67.73
2018-03-07T08:46:10.662Z,69.67
2018-03-07T08:48:36.580Z,69.49
2018-03-07T08:51:02.508Z,70.59
2018-03-07T08:53:28.456Z,70.27
2018-03-07T08:55:54.384Z,69.22
2018-03-07T08:58:20.320Z,69.96
2018-03-07T09:00:46.256Z,69.94
2018-03-07T09:03:12.195Z,69.61
2018-03-07T09:05:38.117Z,69.68
2018-03-07T09:08:04.086Z,69.57
2018-03-07T09:10:30.023Z,70.25
2018-03-07T09:12:55.948Z,70.04
2018-03-07T09:15:21.864Z,70.14
2018-03-07T09:17:47.785Z,69.94
2018-03-07T09:20:13.715Z,70.60
2018-03-07T09:22:39.648Z,70.28
2018-03-07T09:25:05.599Z,70.00
2018-03-07T09:27:31.526Z,70.27
2018-03-07T09:29:57.492Z,69.46
2018-03-07T09:32:23.420Z,70.41
2018-03-07T09:34:49.344Z,70.01
2018-03-07T09:37:15.268Z,71.11
2018-03-07T09:39:41.182Z,69.83
2018-03-07T09:42:07.098Z,69.24
2018-03-07T09:44:33.026Z,69.42
2018-03-07T09:46:59.057Z,68.61
2018-03-07T09:49:24.970Z,69.23
2018-03-07T09:51:50.890Z,69.63
2018-03-07T09:54:16.817Z,69.66
2018-03-07T09:56:42.745Z,69.96
2018-03-07T09:59:08.665Z,69.66
2018-03-07T10:01:34.597Z,69.21
2018-03-07T10:04:00.521Z,69.42
2018-03-07T10:06:26.449Z,69.20
2018-03-07T10:08:52.366Z,69.94
2018-03-07T10:11:18.284Z,70.12
2018-03-07T10:13:44.200Z,69.06
2018-03-07T10:16:10.136Z,69.94
2018-03-07T10:18:36.066Z,68.52
2018-03-07T10:21:01.990Z,68.19
2018-03-07T10:23:27.915Z,69.18
2018-03-07T10:25:53.846Z,69.03
2018-03-07T10:28:19.769Z,67.99
2018-03-07T10:30:45.690Z,69.11
2018-03-07T10:33:11.610Z,69.97
2018-03-07T10:35:37.530Z,69.08
2018-03-07T10:38:03.476Z,69.13
2018-03-07T10:40:29.407Z,68.45
2018-03-07T10:42:55.352Z,68.54
2018-03-07T10:45:21.279Z,67.75
2018-03-07T10:47:47.203Z,70.02
2018-03-07T10:50:13.146Z,69.22
2018-03-07T10:52:39.078Z,69.61
2018-03-07T10:55:05.005Z,68.96
2018-03-07T10:57:30.940Z,68.69
2018-03-07T10:59:56.868Z,69.19
2018-03-07T11:02:22.800Z,68.13
2018-03-07T11:04:48.730Z,68.39
2018-03-07T11:07:14.667Z,69.54
2018-03-07T11:09:40.603Z,69.13
2018-03-07T11:12:06.542Z,70.36
2018-03-07T11:14:32.480Z,69.91
2018-03-07T11:16:58.418Z,69.88
2018-03-07T11:19:24.368Z,69.72
2018-03-07T11:21:50.294Z,71.19
2018-03-07T11:24:16.232Z,69.54
2018-03-07T11:26:42.186Z,69.38
2018-03-07T11:29:08.112Z,69.50
2018-03-07T11:31:34.027Z,68.00
2018-03-07T11:33:59.959Z,68.99
2018-03-07T11:36:25.882Z,68.43
2018-03-07T11:38:51.839Z,69.13
2018-03-07T11:41:17.760Z,69.55
2018-03-07T11:43:43.683Z,68.55
2018-03-07T11:46:09.622Z,68.33
2018-03-07T11:48:35.558Z,69.46
2018-03-07T11:51:01.478Z,70.48
2018-03-07T11:53:27.438Z,69.58
2018-03-07T11:55:53.387Z,70.67
2018-03-07T11:58:19.463Z,70.62
2018-03-07T12:00:45.447Z,69.97
2018-03-07T12:03:11.382Z,69.33
2018-03-07T12:05:38.602Z,69.01
2018-03-07T12:08:04.535Z,69.33
2018-03-07T12:10:30.476Z,70.78
2018-03-07T12:12:56.455Z,70.79
2018-03-07T12:15:22.374Z,70.81
2018-03-07T12:17:48.311Z,70.08
2018-03-07T12:20:14.241Z,71.63
2018-03-07T12:22:40.195Z,70.46
2018-03-07T12:25:06.118Z,70.13
2018-03-07T12:27:32.117Z,69.95
2018-03-07T12:29:58.051Z,70.82
2018-03-07T12:32:23.987Z,72.30
2018-03-07T12:34:49.903Z,71.83
2018-03-07T12:37:15.853Z,72.70
2018-03-07T12:39:41.791Z,71.43
2018-03-07T12:42:07.724Z,71.22
2018-03-07T12:44:33.646Z,71.56
2018-03-07T12:46:59.581Z,70.65
2018-03-07T12:49:25.499Z,71.68
2018-03-07T12:51:51.433Z,71.90
2018-03-07T12:54:17.439Z,70.93
2018-03-07T12:56:43.367Z,70.94
2018-03-07T12:59:09.289Z,70.22
2018-03-07T13:01:35.347Z,70.87
2018-03-07T13:04:01.285Z,71.87
2018-03-07T13:06:27.216Z,71.49
2018-03-07T13:08:53.159Z,71.42
2018-03-07T13:11:19.095Z,71.14
2018-03-07T13:13:45.123Z,71.01
2018-03-07T13:16:11.059Z,71.28
2018-03-07T13:18:36.987Z,70.01
2018-03-07T13:21:02.919Z,69.78
2018-03-07T13:23:28.853Z,69.37
2018-03-07T13:25:54.778Z,69.25
2018-03-07T13:28:20.717Z,68.89
2018-03-07T13:30:46.650Z,68.79
2018-03-07T13:33:12.585Z,67.46
2018-03-07T13:35:38.515Z,67.29
2018-03-07T13:38:04.439Z,68.63
2018-03-07T13:40:30.355Z,67.33
2018-03-07T13:42:56.387Z,68.15
2018-03-07T13:45:22.326Z,67.70
2018-03-07T13:47:48.255Z,66.40
2018-03-07T13:50:14.189Z,67.59
2018-03-07T13:52:40.215Z,66.93
2018-03-07T13:55:06.147Z,66.43
2018-03-07T13:57:32.090Z,66.78
2018-03-07T13:59:58.023Z,66.23
2018-03-07T14:02:23.955Z,66.12
2018-03-07T14:04:49.883Z,65.34
2018-03-07T14:07:15.823Z,66.48
2018-03-07T14:09:41.763Z,65.06
2018-03-07T14:12:07.703Z,65.95
2018-03-07T14:14:33.655Z,65.83
2018-03-07T14:16:59.605Z,65.69
2018-03-07T14:19:25.544Z,65.70
2018-03-07T14:21:51.499Z,65.16
2018-03-07T14:24:17.424Z,65.82
2018-03-07T14:26:43.375Z,64.83
2018-03-07T14:29:09.295Z,65.05
2018-03-07T14:31:35.255Z,65.04
2018-03-07T14:34:01.179Z,64.22
2018-03-07T14:36:27.134Z,64.07
2018-03-07T14:38:53.063Z,63.96
2018-03-07T14:41:19.047Z,64.29
2018-03-07T14:43:45.021Z,65.12
2018-03-07T14:46:10.973Z,64.32
2018-03-07T14:48:36.913Z,64.43
2018-03-07T14:51:02.859Z,64.43
2018-03-07T14:53:28.805Z,64.51
2018-03-07T14:55:54.765Z,63.04
2018-03-07T14:58:20.687Z,64.28
2018-03-07T15:00:46.610Z,64.50
2018-03-07T15:03:12.530Z,63.76
2018-03-07T15:05:38.449Z,64.21
2018-03-07T15:08:04.370Z,63.96
2018-03-07T15:10:30.397Z,63.75
2018-03-07T15:12:56.323Z,63.72
2018-03-07T15:15:22.257Z,63.36
2018-03-07T15:17:48.191Z,62.81
2018-03-07T15:20:14.136Z,62.97
2018-03-07T15:22:40.056Z,62.85
2018-03-07T15:25:05.984Z,62.38
2018-03-07T15:27:31.907Z,63.27
2018-03-07T15:29:57.826Z,62.80
2018-03-07T15:32:23.770Z,63.12
2018-03-07T15:34:49.687Z,62.39
2018-03-07T15:37:15.623Z,62.61
2018-03-07T15:39:41.550Z,62.52
2018-03-07T15:42:07.481Z,61.75
2018-03-07T15:44:33.406Z,62.16
2018-03-07T15:46:59.342Z,62.62
2018-03-07T15:49:25.269Z,62.33
2018-03-07T15:51:51.289Z,62.56
2018-03-07T15:54:17.289Z,62.79
2018-03-07T15:56:43.241Z,62.46
2018-03-07T15:59:09.163Z,62.98
2018-03-07T16:01:35.101Z,62.66
2018-03-07T16:04:01.020Z,62.59
2018-03-07T16:06:26.956Z,62.98
2018-03-07T16:08:52.897Z,62.47
2018-03-07T16:11:18.832Z,63.46
2018-03-07T16:13:44.750Z,63.27
2018-03-07T16:16:10.674Z,63.69
2018-03-07T16:18:36.593Z,63.42
2018-03-07T16:21:02.577Z,63.22
2018-03-07T16:23:28.489Z,63.24
2018-03-07T16:25:54.414Z,62.49
2018-03-07T16:28:20.337Z,63.18
2018-03-07T16:30:46.330Z,63.19
2018-03-07T16:33:13.362Z,62.97
2018-03-07T16:35:39.326Z,63.25
2018-03-07T16:38:05.245Z,63.61
2018-03-07T16:40:31.178Z,63.45
2018-03-07T16:42:57.100Z,63.55
2018-03-07T16:45:23.026Z,63.15
2018-03-07T16:47:48.970Z,63.14
2018-03-07T16:50:14.894Z,63.00
2018-03-07T16:52:40.930Z,62.78
2018-03-07T16:55:06.901Z,63.00
2018-03-07T16:57:33.941Z,63.26
2018-03-07T16:59:59.901Z,63.28
2018-03-07T17:02:25.842Z,63.23
2018-03-07T17:04:51.776Z,62.95
2018-03-07T17:07:17.718Z,62.41
2018-03-07T17:09:43.676Z,62.21
2018-03-07T17:12:09.792Z,62.59
2018-03-07T17:14:35.735Z,62.66
2018-03-07T17:17:01.678Z,62.76
2018-03-07T17:19:27.631Z,62.64
2018-03-07T17:21:53.583Z,61.91
2018-03-07T17:24:19.517Z,62.32
2018-03-07T17:26:45.446Z,62.39
2018-03-07T17:29:11.387Z,62.13
2018-03-07T17:31:37.320Z,62.40
2018-03-07T17:34:03.253Z,62.40
2018-03-07T17:36:29.268Z,61.88
2018-03-07T17:38:55.197Z,61.56
2018-03-07T17:41:21.221Z,62.09
2018-03-07T17:43:47.139Z,61.91
2018-03-07T17:46:13.061Z,62.05
2018-03-07T17:48:38.982Z,61.60
2018-03-07T17:51:04.907Z,61.83
2018-03-07T17:53:30.931Z,61.78
2018-03-07T17:55:56.872Z,61.97
2018-03-07T17:58:22.867Z,61.96
2018-03-07T18:00:48.783Z,61.34
2018-03-07T18:03:14.719Z,61.72
2018-03-07T18:05:40.659Z,61.63
2018-03-07T18:08:06.579Z,61.69
2018-03-07T18:10:32.624Z,62.04
2018-03-07T18:12:58.541Z,61.66
2018-03-07T18:15:24.475Z,60.97
2018-03-07T18:17:50.403Z,61.21
2018-03-07T18:20:16.339Z,60.92
2018-03-07T18:22:42.273Z,61.13
2018-03-07T18:25:08.222Z,61.35
2018-03-07T18:27:34.155Z,61.00
2018-03-07T18:30:00.105Z,60.53
2018-03-07T18:32:26.053Z,60.33
2018-03-07T18:34:51.982Z,60.12
2018-03-07T18:37:18.039Z,60.54
2018-03-07T18:39:43.985Z,60.47
2018-03-07T18:42:09.909Z,60.41
2018-03-07T18:44:35.851Z,60.16
2018-03-07T18:47:01.777Z,60.19
2018-03-07T18:49:27.752Z,60.14
2018-03-07T18:51:53.661Z,59.46
2018-03-07T18:54:19.595Z,59.51
2018-03-07T18:56:45.543Z,59.72
2018-03-07T18:59:11.482Z,59.21
2018-03-07T19:01:37.411Z,59.56
2018-03-07T19:04:03.381Z,59.51
2018-03-07T19:06:29.311Z,59.09
2018-03-07T19:08:55.253Z,59.09
2018-03-07T19:11:21.202Z,59.82
2018-03-07T19:13:47.132Z,59.71
2018-03-07T19:16:13.067Z,59.75
2018-03-07T19:18:39.005Z,59.76
2018-03-07T19:21:04.956Z,59.46
2018-03-07T19:23:30.907Z,59.67
2018-03-07T19:25:56.839Z,59.63
2018-03-07T19:28:22.765Z,59.44
2018-03-07T19:30:48.736Z,59.25
2018-03-07T19:33:14.793Z,59.74
2018-03-07T19:35:40.721Z,59.30
2018-03-07T19:38:06.664Z,59.27
2018-03-07T19:40:32.594Z,59.23
2018-03-07T19:42:58.532Z,58.90
2018-03-07T19:45:24.493Z,58.82
2018-03-07T19:47:50.427Z,59.24
2018-03-07T19:50:16.367Z,59.15
2018-03-07T19:52:42.329Z,58.93
2018-03-07T19:55:08.255Z,58.93
2018-03-07T19:57:34.227Z,58.79
2018-03-07T20:00:00.183Z,58.83
2018-03-07T20:02:26.137Z,58.87
2018-03-07T20:04:53.582Z,58.95
2018-03-07T20:07:23.163Z,58.78
2018-03-07T20:09:49.183Z,58.76
2018-03-07T20:12:15.146Z,58.86
2018-03-07T20:14:41.106Z,58.71
2018-03-07T20:17:08.305Z,58.46
2018-03-07T20:19:34.254Z,58.89
2018-03-07T20:22:00.196Z,59.01
2018-03-07T20:24:26.136Z,58.65
2018-03-07T20:26:52.089Z,58.47
2018-03-07T20:29:18.054Z,58.47
2018-03-07T20:31:43.988Z,58.63
2018-03-07T20:34:11.750Z,58.53
2018-03-07T20:36:37.914Z,58.45
2018-03-07T20:39:03.834Z,58.44
2018-03-07T20:41:29.784Z,58.91
2018-03-07T20:43:55.719Z,58.65
2018-03-07T20:46:21.681Z,58.54
2018-03-07T20:48:47.615Z,58.44
2018-03-07T20:51:13.613Z,58.30
2018-03-07T20:53:39.641Z,58.34
2018-03-07T20:56:05.591Z,58.56
2018-03-07T20:58:31.557Z,58.79
2018-03-07T21:06:36.954Z,58.56
2018-03-07T21:09:02.895Z,58.89
2018-03-07T21:11:28.888Z,58.96
2018-03-07T21:13:54.828Z,59.05
2018-03-07T21:16:20.780Z,59.02
2018-03-07T21:18:46.760Z,59.10
2018-03-07T21:21:12.718Z,58.72
2018-03-07T21:23:38.736Z,58.82
2018-03-07T21:26:04.707Z,59.09
2018-03-07T21:28:30.641Z,59.10
2018-03-07T21:30:56.593Z,59.14
2018-03-07T21:33:22.543Z,58.98
2018-03-07T21:35:48.482Z,58.91
2018-03-07T21:38:14.437Z,58.85
2018-03-07T21:40:40.442Z,58.52
2018-03-07T21:43:06.365Z,58.69
2018-03-07T21:45:32.342Z,58.59
2018-03-07T21:47:58.289Z,58.50
2018-03-07T21:50:25.268Z,58.50
2018-03-07T21:52:51.186Z,58.65
2018-03-07T21:55:17.129Z,58.61
2018-03-07T21:57:43.058Z,58.42
2018-03-07T22:00:09.002Z,58.73
2018-03-07T22:02:34.936Z,58.75
2018-03-07T22:05:00.886Z,58.83
2018-03-07T22:07:26.810Z,58.78
2018-03-07T22:09:52.766Z,58.91
2018-03-07T22:12:18.740Z,58.80
2018-03-07T22:14:44.678Z,58.52
2018-03-07T22:17:10.611Z,58.83
2018-03-07T22:19:36.534Z,58.71
2018-03-07T22:22:02.454Z,58.56
2018-03-07T22:24:28.374Z,58.97
2018-03-07T22:26:54.318Z,58.76
2018-03-07T22:29:20.251Z,58.83
2018-03-07T22:31:46.175Z,58.46
2018-03-07T22:34:12.096Z,58.67
2018-03-07T22:36:38.030Z,58.51
2018-03-07T22:39:03.970Z,58.62
2018-03-07T22:41:29.906Z,59.09
2018-03-07T22:43:55.842Z,58.91
2018-03-07T22:46:21.788Z,59.07
2018-03-07T22:48:47.714Z,58.76
2018-03-07T22:51:13.650Z,59.18
2018-03-07T22:53:39.598Z,58.81
2018-03-07T22:56:05.534Z,58.89
2018-03-07T22:58:31.524Z,58.95
2018-03-07T23:00:57.442Z,58.56
2018-03-07T23:03:23.357Z,58.83
2018-03-07T23:05:49.290Z,58.58
2018-03-07T23:08:15.214Z,58.63
2018-03-07T23:10:41.146Z,58.30
2018-03-07T23:13:07.074Z,59.01
2018-03-07T23:15:33.010Z,59.18
2018-03-07T23:17:58.932Z,59.08
2018-03-07T23:20:24.878Z,59.08
2018-03-07T23:22:50.820Z,59.27
2018-03-07T23:25:16.759Z,59.11
2018-03-07T23:27:42.683Z,59.05
2018-03-07T23:30:08.616Z,59.72
2018-03-07T23:32:34.553Z,58.75
2018-03-07T23:35:00.502Z,58.59
2018-03-07T23:37:26.445Z,58.59
2018-03-07T23:39:52.397Z,58.74
2018-03-07T23:42:18.331Z,58.65
2018-03-07T23:44:44.258Z,58.77
2018-03-07T23:47:10.203Z,58.75
2018-03-07T23:49:36.118Z,58.67
2018-03-07T23:52:02.047Z,57.99
2018-03-07T23:54:27.985Z,57.97
2018-03-07T23:56:53.914Z,58.28
2018-03-07T23:59:19.865Z,58.27
